Sochi-1 — UBIH7 — position and weather

sailwx.info

Track history (hours):
 
Tides and Currents Weather Stations Pressure Air Temp Water Temp Dewpoint Dewpoint Depression Visibility Wind Speed Wind Dir Waves Ship Positions

Sochi-1

Last reported at 2017-Dec-13 14:17 UTC. Time now 2018-Feb-20 17:54 UTC.
Position N 44°38' E 037°30'.
Warning: this ship's position is months out of date.

Length 470 m; draft 2.6 m.

Type: Ship. MMSI: 273351130.

Date/timePositionNaut miles runAvg speedWind from/ knotsBaromVisibWave heightAir tempDewpointWater temp
2017-Dec-13 14:17N 44°38' E 037°30'2 5.7
2017-Dec-13 14:00N 44°37' E 037°32'3 5.8
2017-Dec-13 13:30N 44°36' E 037°36'3 5.8
2017-Dec-13 13:01N 44°36' E 037°40'3 5.3
2017-Dec-13 12:31N 44°36' E 037°43'2 4.6
2017-Dec-13 12:01N 44°38' E 037°46'2 4.3
2017-Dec-13 11:31N 44°39' E 037°49'2 4.1
2017-Dec-13 11:01N 44°41' E 037°50'2 3.3
2017-Dec-13 10:31N 44°42' E 037°49'1 2.3
2017-Dec-13 10:01N 44°43' E 037°48'0 0.7
2017-Dec-13 09:30N 44°43' E 037°47'  
2017-Dec-03 21:24N 44°44' E 037°47'0 0.0
2017-Dec-03 21:00N 44°44' E 037°47'0 0.0
2017-Dec-03 20:27N 44°44' E 037°47'0 0.0
2017-Dec-03 20:00N 44°44' E 037°47'0 0.0
2017-Dec-03 19:30N 44°44' E 037°47'0 0.0
2017-Dec-03 18:57N 44°44' E 037°47'0 0.0
2017-Dec-03 18:27N 44°44' E 037°47'0 0.0
2017-Dec-03 18:00N 44°44' E 037°47'0 0.0
2017-Dec-03 17:30N 44°44' E 037°47'0 0.0
2017-Dec-03 17:00N 44°44' E 037°47'0 0.0
2017-Dec-03 16:30N 44°44' E 037°47'0 0.0
2017-Dec-03 16:00N 44°44' E 037°47'0 0.0
2017-Dec-03 15:30N 44°44' E 037°47'0 0.0
2017-Dec-03 15:00N 44°44' E 037°47'0 0.0
2017-Dec-03 14:30N 44°44' E 037°47'  
Track history (hours):
 
Tides and Currents Weather Stations Pressure Air Temp Water Temp Dewpoint Dewpoint Depression Visibility Wind Speed Wind Dir Waves Ship Positions

Sochi-1

Last reported at 2017-Dec-13 14:17 UTC. Time now 2018-Feb-20 17:54 UTC.
Position N 44°38' E 037°30'.
Warning: this ship's position is months out of date.

Length 470 m; draft 2.6 m.

Type: Ship. MMSI: 273351130.

Date/timePositionNaut miles runAvg speedWind from/ knotsBaromVisibWave heightAir tempDewpointWater temp
2017-Dec-13 14:17N 44°38' E 037°30'2 5.7
2017-Dec-13 14:00N 44°37' E 037°32'3 5.8
2017-Dec-13 13:30N 44°36' E 037°36'3 5.8
2017-Dec-13 13:01N 44°36' E 037°40'3 5.3
2017-Dec-13 12:31N 44°36' E 037°43'2 4.6
2017-Dec-13 12:01N 44°38' E 037°46'2 4.3
2017-Dec-13 11:31N 44°39' E 037°49'2 4.1
2017-Dec-13 11:01N 44°41' E 037°50'2 3.3
2017-Dec-13 10:31N 44°42' E 037°49'1 2.3
2017-Dec-13 10:01N 44°43' E 037°48'0 0.7
2017-Dec-13 09:30N 44°43' E 037°47'  
2017-Dec-03 21:24N 44°44' E 037°47'0 0.0
2017-Dec-03 21:00N 44°44' E 037°47'0 0.0
2017-Dec-03 20:27N 44°44' E 037°47'0 0.0
2017-Dec-03 20:00N 44°44' E 037°47'0 0.0
2017-Dec-03 19:30N 44°44' E 037°47'0 0.0
2017-Dec-03 18:57N 44°44' E 037°47'0 0.0
2017-Dec-03 18:27N 44°44' E 037°47'0 0.0
2017-Dec-03 18:00N 44°44' E 037°47'0 0.0
2017-Dec-03 17:30N 44°44' E 037°47'0 0.0
2017-Dec-03 17:00N 44°44' E 037°47'0 0.0
2017-Dec-03 16:30N 44°44' E 037°47'0 0.0
2017-Dec-03 16:00N 44°44' E 037°47'0 0.0
2017-Dec-03 15:30N 44°44' E 037°47'0 0.0
2017-Dec-03 15:00N 44°44' E 037°47'0 0.0
2017-Dec-03 14:30N 44°44' E 037°47'  

Dump ship's entire track history